sensor_id;sensor_type;location;lat;lon;timestamp;P1;durP1;ratioP1;P2;durP2;ratioP2
2762;SDS011;1389;51.490;7.338;2023-06-24T00:01:06;234.40;;;22.10;;
2762;SDS011;1389;51.490;7.338;2023-06-24T00:03:32;236.38;;;22.88;;
2762;SDS011;1389;51.490;7.338;2023-06-24T00:06:02;127.80;;;16.57;;
2762;SDS011;1389;51.490;7.338;2023-06-24T00:08:29;98.63;;;14.10;;
2762;SDS011;1389;51.490;7.338;2023-06-24T00:11:00;44.00;;;9.35;;
2762;SDS011;1389;51.490;7.338;2023-06-24T00:13:27;25.15;;;6.90;;
2762;SDS011;1389;51.490;7.338;2023-06-24T00:15:54;20.75;;;6.20;;
2762;SDS011;1389;51.490;7.338;2023-06-24T00:18:21;14.40;;;5.20;;
2762;SDS011;1389;51.490;7.338;2023-06-24T00:20:50;26.98;;;7.13;;
2762;SDS011;1389;51.490;7.338;2023-06-24T00:23:17;19.80;;;6.05;;
2762;SDS011;1389;51.490;7.338;2023-06-24T00:25:50;19.27;;;6.00;;
2762;SDS011;1389;51.490;7.338;2023-06-24T00:28:16;11.13;;;4.53;;
2762;SDS011;1389;51.490;7.338;2023-06-24T00:30:43;9.75;;;4.20;;
2762;SDS011;1389;51.490;7.338;2023-06-24T00:33:09;36.30;;;8.55;;
2762;SDS011;1389;51.490;7.338;2023-06-24T00:35:39;42.30;;;9.30;;
2762;SDS011;1389;51.490;7.338;2023-06-24T00:38:05;38.47;;;8.80;;
2762;SDS011;1389;51.490;7.338;2023-06-24T00:40:32;25.73;;;7.10;;
2762;SDS011;1389;51.490;7.338;2023-06-24T00:42:59;24.25;;;6.80;;
2762;SDS011;1389;51.490;7.338;2023-06-24T00:45:27;25.45;;;7.00;;
2762;SDS011;1389;51.490;7.338;2023-06-24T00:47:55;38.35;;;8.77;;
2762;SDS011;1389;51.490;7.338;2023-06-24T00:50:22;41.25;;;9.20;;
2762;SDS011;1389;51.490;7.338;2023-06-24T00:52:48;43.90;;;9.50;;
2762;SDS011;1389;51.490;7.338;2023-06-24T00:55:15;46.08;;;9.80;;
2762;SDS011;1389;51.490;7.338;2023-06-24T00:57:43;100.35;;;14.50;;
2762;SDS011;1389;51.490;7.338;2023-06-24T01:00:10;108.57;;;15.00;;
2762;SDS011;1389;51.490;7.338;2023-06-24T01:02:40;103.40;;;14.60;;
2762;SDS011;1389;51.490;7.338;2023-06-24T01:05:08;140.30;;;16.80;;
2762;SDS011;1389;51.490;7.338;2023-06-24T01:07:35;78.60;;;13.20;;
2762;SDS011;1389;51.490;7.338;2023-06-24T01:10:03;90.17;;;13.90;;
2762;SDS011;1389;51.490;7.338;2023-06-24T01:12:33;97.68;;;14.32;;
2762;SDS011;1389;51.490;7.338;2023-06-24T01:15:00;32.40;;;8.10;;
2762;SDS011;1389;51.490;7.338;2023-06-24T01:17:29;20.85;;;6.40;;
2762;SDS011;1389;51.490;7.338;2023-06-24T01:33:02;84.35;;;13.50;;
2762;SDS011;1389;51.490;7.338;2023-06-24T01:35:31;67.25;;;12.20;;
2762;SDS011;1389;51.490;7.338;2023-06-24T01:37:59;98.47;;;15.13;;
2762;SDS011;1389;51.490;7.338;2023-06-24T01:40:31;147.45;;;17.30;;
2762;SDS011;1389;51.490;7.338;2023-06-24T01:42:59;161.30;;;18.10;;
2762;SDS011;1389;51.490;7.338;2023-06-24T01:45:27;229.95;;;22.02;;
2762;SDS011;1389;51.490;7.338;2023-06-24T01:48:13;79.35;;;13.20;;
2762;SDS011;1389;51.490;7.338;2023-06-24T01:50:43;51.63;;;10.57;;
2762;SDS011;1389;51.490;7.338;2023-06-24T01:53:09;38.90;;;9.10;;
2762;SDS011;1389;51.490;7.338;2023-06-24T01:55:39;39.00;;;9.10;;
2762;SDS011;1389;51.490;7.338;2023-06-24T01:58:07;36.13;;;8.77;;
2762;SDS011;1389;51.490;7.338;2023-06-24T02:00:35;39.55;;;9.20;;
2762;SDS011;1389;51.490;7.338;2023-06-24T02:03:02;28.23;;;7.68;;
2762;SDS011;1389;51.490;7.338;2023-06-24T02:05:30;12.40;;;4.97;;
2762;SDS011;1389;51.490;7.338;2023-06-24T02:07:57;11.32;;;4.80;;
2762;SDS011;1389;51.490;7.338;2023-06-24T02:10:24;14.98;;;5.50;;
2762;SDS011;1389;51.490;7.338;2023-06-24T02:12:51;37.97;;;8.70;;
2762;SDS011;1389;51.490;7.338;2023-06-24T02:15:19;27.40;;;7.45;;
2762;SDS011;1389;51.490;7.338;2023-06-24T02:17:49;38.10;;;9.00;;
2762;SDS011;1389;51.490;7.338;2023-06-24T02:20:16;27.20;;;7.43;;
2762;SDS011;1389;51.490;7.338;2023-06-24T02:22:43;18.40;;;6.13;;
2762;SDS011;1389;51.490;7.338;2023-06-24T02:25:10;28.08;;;7.70;;
2762;SDS011;1389;51.490;7.338;2023-06-24T02:27:36;59.30;;;11.52;;
2762;SDS011;1389;51.490;7.338;2023-06-24T02:30:04;60.90;;;11.70;;
2762;SDS011;1389;51.490;7.338;2023-06-24T02:32:31;75.22;;;13.00;;
2762;SDS011;1389;51.490;7.338;2023-06-24T02:34:58;79.18;;;13.40;;
2762;SDS011;1389;51.490;7.338;2023-06-24T02:37:24;62.47;;;11.80;;
2762;SDS011;1389;51.490;7.338;2023-06-24T02:39:51;58.47;;;11.53;;
2762;SDS011;1389;51.490;7.338;2023-06-24T02:42:17;78.80;;;13.30;;
2762;SDS011;1389;51.490;7.338;2023-06-24T02:44:44;82.93;;;13.55;;
2762;SDS011;1389;51.490;7.338;2023-06-24T02:47:11;82.60;;;13.60;;
2762;SDS011;1389;51.490;7.338;2023-06-24T02:49:38;80.90;;;13.45;;
2762;SDS011;1389;51.490;7.338;2023-06-24T02:52:05;80.10;;;13.40;;
2762;SDS011;1389;51.490;7.338;2023-06-24T02:54:32;85.82;;;13.80;;
2762;SDS011;1389;51.490;7.338;2023-06-24T02:56:59;179.77;;;19.20;;
2762;SDS011;1389;51.490;7.338;2023-06-24T02:59:25;221.70;;;22.47;;
2762;SDS011;1389;51.490;7.338;2023-06-24T03:01:52;238.65;;;22.40;;
2762;SDS011;1389;51.490;7.338;2023-06-24T03:04:19;243.10;;;22.70;;
2762;SDS011;1389;51.490;7.338;2023-06-24T03:06:46;174.10;;;18.90;;
2762;SDS011;1389;51.490;7.338;2023-06-24T03:09:14;193.07;;;19.83;;
2762;SDS011;1389;51.490;7.338;2023-06-24T03:11:42;123.72;;;16.20;;
2762;SDS011;1389;51.490;7.338;2023-06-24T03:14:08;132.80;;;16.75;;
2762;SDS011;1389;51.490;7.338;2023-06-24T03:16:35;197.77;;;21.77;;
2762;SDS011;1389;51.490;7.338;2023-06-24T03:19:04;190.30;;;19.70;;
2762;SDS011;1389;51.490;7.338;2023-06-24T03:21:30;200.98;;;20.40;;
2762;SDS011;1389;51.490;7.338;2023-06-24T03:23:57;172.77;;;18.83;;
2762;SDS011;1389;51.490;7.338;2023-06-24T03:26:35;199.50;;;20.55;;
2762;SDS011;1389;51.490;7.338;2023-06-24T03:29:01;241.00;;;22.50;;
2762;SDS011;1389;51.490;7.338;2023-06-24T03:31:28;157.30;;;18.20;;
2762;SDS011;1389;51.490;7.338;2023-06-24T03:33:55;232.70;;;22.20;;
2762;SDS011;1389;51.490;7.338;2023-06-24T03:36:21;273.25;;;24.60;;
2762;SDS011;1389;51.490;7.338;2023-06-24T03:38:49;279.80;;;24.85;;
2762;SDS011;1389;51.490;7.338;2023-06-24T03:41:16;279.40;;;25.02;;
2762;SDS011;1389;51.490;7.338;2023-06-24T03:43:42;271.85;;;29.58;;
2762;SDS011;1389;51.490;7.338;2023-06-24T03:46:10;220.93;;;21.80;;
2762;SDS011;1389;51.490;7.338;2023-06-24T03:48:37;241.88;;;22.60;;
2762;SDS011;1389;51.490;7.338;2023-06-24T03:51:04;240.50;;;22.60;;
2762;SDS011;1389;51.490;7.338;2023-06-24T03:53:30;241.50;;;22.80;;
2762;SDS011;1389;51.490;7.338;2023-06-24T03:55:57;258.30;;;23.60;;
2762;SDS011;1389;51.490;7.338;2023-06-24T03:58:23;258.45;;;23.70;;
2762;SDS011;1389;51.490;7.338;2023-06-24T04:00:49;244.20;;;22.80;;
2762;SDS011;1389;51.490;7.338;2023-06-24T04:03:16;242.55;;;22.83;;
2762;SDS011;1389;51.490;7.338;2023-06-24T04:05:44;248.40;;;23.50;;
2762;SDS011;1389;51.490;7.338;2023-06-24T04:08:10;247.50;;;23.00;;
2762;SDS011;1389;51.490;7.338;2023-06-24T04:10:37;247.10;;;23.00;;
2762;SDS011;1389;51.490;7.338;2023-06-24T04:13:23;253.55;;;23.40;;
2762;SDS011;1389;51.490;7.338;2023-06-24T04:15:55;257.75;;;23.70;;
2762;SDS011;1389;51.490;7.338;2023-06-24T04:18:21;261.42;;;23.92;;
2762;SDS011;1389;51.490;7.338;2023-06-24T04:20:50;261.95;;;23.90;;
2762;SDS011;1389;51.490;7.338;2023-06-24T04:23:16;263.25;;;24.00;;
2762;SDS011;1389;51.490;7.338;2023-06-24T04:25:43;264.60;;;24.10;;
2762;SDS011;1389;51.490;7.338;2023-06-24T04:28:09;264.20;;;24.00;;
2762;SDS011;1389;51.490;7.338;2023-06-24T04:30:39;263.95;;;23.90;;
2762;SDS011;1389;51.490;7.338;2023-06-24T04:33:06;265.30;;;24.10;;
2762;SDS011;1389;51.490;7.338;2023-06-24T04:35:32;263.08;;;23.90;;
2762;SDS011;1389;51.490;7.338;2023-06-24T04:37:59;260.30;;;23.80;;
2762;SDS011;1389;51.490;7.338;2023-06-24T04:40:25;260.88;;;23.90;;
2762;SDS011;1389;51.490;7.338;2023-06-24T04:42:52;260.27;;;23.80;;
2762;SDS011;1389;51.490;7.338;2023-06-24T04:45:18;265.60;;;24.20;;
2762;SDS011;1389;51.490;7.338;2023-06-24T04:47:44;262.57;;;24.00;;
2762;SDS011;1389;51.490;7.338;2023-06-24T04:50:11;265.75;;;24.20;;
2762;SDS011;1389;51.490;7.338;2023-06-24T04:52:38;264.08;;;24.10;;
2762;SDS011;1389;51.490;7.338;2023-06-24T04:55:04;261.80;;;23.90;;
2762;SDS011;1389;51.490;7.338;2023-06-24T04:57:31;261.70;;;23.80;;
2762;SDS011;1389;51.490;7.338;2023-06-24T04:59:59;260.65;;;23.70;;
2762;SDS011;1389;51.490;7.338;2023-06-24T05:02:25;261.40;;;23.80;;
2762;SDS011;1389;51.490;7.338;2023-06-24T05:04:52;261.77;;;23.80;;
2762;SDS011;1389;51.490;7.338;2023-06-24T05:07:19;262.50;;;23.90;;
2762;SDS011;1389;51.490;7.338;2023-06-24T05:09:48;262.30;;;23.90;;
2762;SDS011;1389;51.490;7.338;2023-06-24T05:12:16;260.70;;;24.00;;
2762;SDS011;1389;51.490;7.338;2023-06-24T05:14:42;260.00;;;24.00;;
2762;SDS011;1389;51.490;7.338;2023-06-24T05:17:09;259.30;;;23.70;;
2762;SDS011;1389;51.490;7.338;2023-06-24T05:19:35;264.20;;;24.10;;
2762;SDS011;1389;51.490;7.338;2023-06-24T05:22:02;266.27;;;24.30;;
2762;SDS011;1389;51.490;7.338;2023-06-24T05:24:28;265.10;;;24.10;;
2762;SDS011;1389;51.490;7.338;2023-06-24T05:26:54;265.90;;;24.20;;
2762;SDS011;1389;51.490;7.338;2023-06-24T05:29:21;266.05;;;24.20;;
2762;SDS011;1389;51.490;7.338;2023-06-24T05:31:47;266.30;;;24.10;;
2762;SDS011;1389;51.490;7.338;2023-06-24T05:34:14;265.60;;;24.10;;
2762;SDS011;1389;51.490;7.338;2023-06-24T05:36:40;261.80;;;23.90;;
2762;SDS011;1389;51.490;7.338;2023-06-24T05:39:07;261.50;;;23.80;;
2762;SDS011;1389;51.490;7.338;2023-06-24T05:41:35;261.80;;;23.90;;
2762;SDS011;1389;51.490;7.338;2023-06-24T05:44:06;261.80;;;23.80;;
2762;SDS011;1389;51.490;7.338;2023-06-24T05:46:32;262.00;;;23.90;;
2762;SDS011;1389;51.490;7.338;2023-06-24T05:48:59;262.15;;;23.90;;
2762;SDS011;1389;51.490;7.338;2023-06-24T05:51:25;263.50;;;24.50;;
2762;SDS011;1389;51.490;7.338;2023-06-24T05:53:51;263.40;;;24.50;;
2762;SDS011;1389;51.490;7.338;2023-06-24T05:56:19;260.15;;;24.45;;
2762;SDS011;1389;51.490;7.338;2023-06-24T05:58:45;260.35;;;24.10;;
2762;SDS011;1389;51.490;7.338;2023-06-24T06:01:11;258.20;;;23.40;;
2762;SDS011;1389;51.490;7.338;2023-06-24T06:03:38;254.85;;;23.10;;
2762;SDS011;1389;51.490;7.338;2023-06-24T06:06:04;252.10;;;23.25;;
2762;SDS011;1389;51.490;7.338;2023-06-24T06:08:31;259.17;;;23.15;;
2762;SDS011;1389;51.490;7.338;2023-06-24T06:10:57;277.95;;;24.13;;
2762;SDS011;1389;51.490;7.338;2023-06-24T06:13:23;275.30;;;24.20;;
2762;SDS011;1389;51.490;7.338;2023-06-24T06:15:50;324.67;;;32.30;;
2762;SDS011;1389;51.490;7.338;2023-06-24T06:18:16;356.30;;;57.85;;
2762;SDS011;1389;51.490;7.338;2023-06-24T06:20:42;145.50;;;17.30;;
2762;SDS011;1389;51.490;7.338;2023-06-24T06:23:09;150.80;;;17.60;;
2762;SDS011;1389;51.490;7.338;2023-06-24T06:25:35;92.25;;;14.35;;
2762;SDS011;1389;51.490;7.338;2023-06-24T06:28:03;268.15;;;24.92;;
2762;SDS011;1389;51.490;7.338;2023-06-24T06:30:30;264.52;;;23.50;;
2762;SDS011;1389;51.490;7.338;2023-06-24T06:32:56;265.05;;;23.70;;
2762;SDS011;1389;51.490;7.338;2023-06-24T06:35:23;264.10;;;23.70;;
2762;SDS011;1389;51.490;7.338;2023-06-24T06:37:50;266.10;;;23.80;;
2762;SDS011;1389;51.490;7.338;2023-06-24T06:40:19;256.20;;;23.20;;
2762;SDS011;1389;51.490;7.338;2023-06-24T06:42:46;255.90;;;23.20;;
2762;SDS011;1389;51.490;7.338;2023-06-24T06:45:13;256.75;;;23.10;;
2762;SDS011;1389;51.490;7.338;2023-06-24T06:47:39;257.92;;;23.20;;
2762;SDS011;1389;51.490;7.338;2023-06-24T06:50:05;256.23;;;23.10;;
2762;SDS011;1389;51.490;7.338;2023-06-24T06:52:33;254.50;;;22.95;;
2762;SDS011;1389;51.490;7.338;2023-06-24T06:54:59;241.90;;;22.40;;
2762;SDS011;1389;51.490;7.338;2023-06-24T06:57:26;236.50;;;22.00;;
2762;SDS011;1389;51.490;7.338;2023-06-24T06:59:53;236.10;;;22.00;;
2762;SDS011;1389;51.490;7.338;2023-06-24T07:02:19;235.30;;;21.90;;
2762;SDS011;1389;51.490;7.338;2023-06-24T07:04:45;238.50;;;22.40;;
2762;SDS011;1389;51.490;7.338;2023-06-24T07:07:13;233.38;;;21.70;;
2762;SDS011;1389;51.490;7.338;2023-06-24T07:09:39;232.00;;;21.70;;
2762;SDS011;1389;51.490;7.338;2023-06-24T07:12:06;233.25;;;21.70;;
2762;SDS011;1389;51.490;7.338;2023-06-24T07:14:32;231.95;;;21.60;;
2762;SDS011;1389;51.490;7.338;2023-06-24T07:16:59;230.93;;;21.50;;
2762;SDS011;1389;51.490;7.338;2023-06-24T07:19:25;231.43;;;21.53;;
2762;SDS011;1389;51.490;7.338;2023-06-24T07:21:51;230.80;;;21.50;;
2762;SDS011;1389;51.490;7.338;2023-06-24T07:24:18;230.30;;;21.50;;
2762;SDS011;1389;51.490;7.338;2023-06-24T07:26:44;228.60;;;21.17;;
2762;SDS011;1389;51.490;7.338;2023-06-24T07:29:10;227.50;;;21.10;;
2762;SDS011;1389;51.490;7.338;2023-06-24T07:31:37;226.10;;;20.90;;
2762;SDS011;1389;51.490;7.338;2023-06-24T07:34:04;223.73;;;20.70;;
2762;SDS011;1389;51.490;7.338;2023-06-24T07:36:30;234.80;;;21.30;;
2762;SDS011;1389;51.490;7.338;2023-06-24T07:38:56;225.63;;;21.25;;
2762;SDS011;1389;51.490;7.338;2023-06-24T07:41:23;224.30;;;20.50;;
2762;SDS011;1389;51.490;7.338;2023-06-24T07:43:49;217.45;;;19.90;;
2762;SDS011;1389;51.490;7.338;2023-06-24T07:46:17;216.80;;;19.60;;
2762;SDS011;1389;51.490;7.338;2023-06-24T07:48:43;174.55;;;16.98;;
2762;SDS011;1389;51.490;7.338;2023-06-24T07:51:10;206.85;;;18.80;;
2762;SDS011;1389;51.490;7.338;2023-06-24T07:53:36;200.65;;;18.38;;
2762;SDS011;1389;51.490;7.338;2023-06-24T07:56:03;200.10;;;18.30;;
2762;SDS011;1389;51.490;7.338;2023-06-24T07:58:29;201.60;;;18.60;;
2762;SDS011;1389;51.490;7.338;2023-06-24T08:00:55;199.80;;;18.40;;
2762;SDS011;1389;51.490;7.338;2023-06-24T08:03:22;197.80;;;18.40;;
2762;SDS011;1389;51.490;7.338;2023-06-24T08:05:48;196.40;;;18.00;;
2762;SDS011;1389;51.490;7.338;2023-06-24T08:08:15;196.85;;;18.00;;
2762;SDS011;1389;51.490;7.338;2023-06-24T08:10:43;196.80;;;18.10;;
2762;SDS011;1389;51.490;7.338;2023-06-24T08:13:10;194.88;;;18.08;;
2762;SDS011;1389;51.490;7.338;2023-06-24T08:15:36;193.20;;;17.80;;
2762;SDS011;1389;51.490;7.338;2023-06-24T08:18:02;195.02;;;18.00;;
2762;SDS011;1389;51.490;7.338;2023-06-24T08:20:29;198.98;;;18.40;;
2762;SDS011;1389;51.490;7.338;2023-06-24T08:22:55;201.93;;;18.35;;
2762;SDS011;1389;51.490;7.338;2023-06-24T08:25:21;198.10;;;17.90;;
2762;SDS011;1389;51.490;7.338;2023-06-24T08:27:48;196.07;;;18.00;;
2762;SDS011;1389;51.490;7.338;2023-06-24T08:30:14;201.95;;;18.60;;
2762;SDS011;1389;51.490;7.338;2023-06-24T08:32:41;200.60;;;18.55;;
2762;SDS011;1389;51.490;7.338;2023-06-24T08:35:10;199.50;;;18.40;;
2762;SDS011;1389;51.490;7.338;2023-06-24T08:37:37;198.80;;;18.50;;
2762;SDS011;1389;51.490;7.338;2023-06-24T08:40:03;199.65;;;18.50;;
2762;SDS011;1389;51.490;7.338;2023-06-24T08:42:30;202.50;;;18.90;;
2762;SDS011;1389;51.490;7.338;2023-06-24T08:44:57;208.40;;;19.00;;
2762;SDS011;1389;51.490;7.338;2023-06-24T08:47:27;246.27;;;31.20;;
2762;SDS011;1389;51.490;7.338;2023-06-24T08:50:04;148.83;;;22.97;;
2762;SDS011;1389;51.490;7.338;2023-06-24T08:52:42;54.17;;;8.15;;
2762;SDS011;1389;51.490;7.338;2023-06-24T08:55:10;32.70;;;5.80;;
2762;SDS011;1389;51.490;7.338;2023-06-24T08:57:39;35.10;;;5.93;;
2762;SDS011;1389;51.490;7.338;2023-06-24T09:00:06;173.73;;;17.15;;
2762;SDS011;1389;51.490;7.338;2023-06-24T09:02:36;177.75;;;17.38;;
2762;SDS011;1389;51.490;7.338;2023-06-24T09:05:06;166.80;;;15.20;;
2762;SDS011;1389;51.490;7.338;2023-06-24T09:07:33;169.93;;;15.85;;
2762;SDS011;1389;51.490;7.338;2023-06-24T09:10:00;60.78;;;8.23;;
2762;SDS011;1389;51.490;7.338;2023-06-24T09:12:26;53.22;;;6.80;;
2762;SDS011;1389;51.490;7.338;2023-06-24T09:14:53;55.08;;;7.10;;
2762;SDS011;1389;51.490;7.338;2023-06-24T09:17:19;129.87;;;13.83;;
2762;SDS011;1389;51.490;7.338;2023-06-24T09:19:48;153.90;;;16.02;;
2762;SDS011;1389;51.490;7.338;2023-06-24T09:22:15;156.32;;;17.13;;
2762;SDS011;1389;51.490;7.338;2023-06-24T09:24:45;76.13;;;9.30;;
2762;SDS011;1389;51.490;7.338;2023-06-24T09:27:15;162.10;;;14.30;;
2762;SDS011;1389;51.490;7.338;2023-06-24T09:29:43;161.05;;;14.20;;
2762;SDS011;1389;51.490;7.338;2023-06-24T09:32:10;160.25;;;13.80;;
2762;SDS011;1389;51.490;7.338;2023-06-24T09:34:37;157.57;;;13.20;;
2762;SDS011;1389;51.490;7.338;2023-06-24T09:37:04;157.10;;;13.18;;
2762;SDS011;1389;51.490;7.338;2023-06-24T09:39:35;158.68;;;13.40;;
2762;SDS011;1389;51.490;7.338;2023-06-24T09:42:02;159.70;;;14.00;;
2762;SDS011;1389;51.490;7.338;2023-06-24T09:44:29;155.80;;;13.40;;
2762;SDS011;1389;51.490;7.338;2023-06-24T09:46:55;151.45;;;12.80;;
2762;SDS011;1389;51.490;7.338;2023-06-24T09:49:22;154.20;;;12.80;;
2762;SDS011;1389;51.490;7.338;2023-06-24T09:51:49;154.15;;;13.05;;
2762;SDS011;1389;51.490;7.338;2023-06-24T09:54:16;154.20;;;13.30;;
2762;SDS011;1389;51.490;7.338;2023-06-24T09:56:43;154.10;;;13.30;;
2762;SDS011;1389;51.490;7.338;2023-06-24T09:59:10;157.88;;;17.92;;
2762;SDS011;1389;51.490;7.338;2023-06-24T10:01:38;154.15;;;13.60;;
2762;SDS011;1389;51.490;7.338;2023-06-24T10:04:08;154.82;;;14.50;;
2762;SDS011;1389;51.490;7.338;2023-06-24T10:06:35;152.63;;;12.20;;
2762;SDS011;1389;51.490;7.338;2023-06-24T10:09:01;153.43;;;13.05;;
2762;SDS011;1389;51.490;7.338;2023-06-24T10:11:28;151.93;;;11.82;;
2762;SDS011;1389;51.490;7.338;2023-06-24T10:13:54;148.30;;;11.30;;
2762;SDS011;1389;51.490;7.338;2023-06-24T10:16:21;149.35;;;11.30;;
2762;SDS011;1389;51.490;7.338;2023-06-24T10:18:47;150.35;;;11.90;;
2762;SDS011;1389;51.490;7.338;2023-06-24T10:21:15;150.57;;;12.15;;
2762;SDS011;1389;51.490;7.338;2023-06-24T10:26:27;150.50;;;11.60;;
2762;SDS011;1389;51.490;7.338;2023-06-24T10:34:20;147.20;;;9.93;;
2762;SDS011;1389;51.490;7.338;2023-06-24T10:44:47;148.85;;;10.52;;
2762;SDS011;1389;51.490;7.338;2023-06-24T10:47:14;147.40;;;10.00;;
2762;SDS011;1389;51.490;7.338;2023-06-24T10:49:40;146.80;;;10.02;;
2762;SDS011;1389;51.490;7.338;2023-06-24T10:52:07;147.20;;;10.43;;
2762;SDS011;1389;51.490;7.338;2023-06-24T10:54:34;147.15;;;10.35;;
2762;SDS011;1389;51.490;7.338;2023-06-24T10:57:01;146.82;;;10.02;;
2762;SDS011;1389;51.490;7.338;2023-06-24T10:59:27;147.27;;;10.20;;
2762;SDS011;1389;51.490;7.338;2023-06-24T11:01:54;146.90;;;9.82;;
2762;SDS011;1389;51.490;7.338;2023-06-24T11:04:20;147.40;;;9.93;;
2762;SDS011;1389;51.490;7.338;2023-06-24T11:06:59;146.88;;;9.38;;
2762;SDS011;1389;51.490;7.338;2023-06-24T11:09:25;147.00;;;9.30;;
2762;SDS011;1389;51.490;7.338;2023-06-24T11:11:52;146.70;;;9.27;;
2762;SDS011;1389;51.490;7.338;2023-06-24T11:14:21;147.50;;;9.70;;
2762;SDS011;1389;51.490;7.338;2023-06-24T11:16:48;147.40;;;9.50;;
2762;SDS011;1389;51.490;7.338;2023-06-24T11:19:15;147.00;;;9.45;;
2762;SDS011;1389;51.490;7.338;2023-06-24T11:21:42;146.82;;;9.50;;
2762;SDS011;1389;51.490;7.338;2023-06-24T11:24:09;147.93;;;10.90;;
2762;SDS011;1389;51.490;7.338;2023-06-24T11:26:36;153.05;;;16.25;;
2762;SDS011;1389;51.490;7.338;2023-06-24T11:29:12;150.20;;;13.20;;
2762;SDS011;1389;51.490;7.338;2023-06-24T11:31:38;147.80;;;9.80;;
2762;SDS011;1389;51.490;7.338;2023-06-24T11:34:05;148.20;;;9.90;;
2762;SDS011;1389;51.490;7.338;2023-06-24T11:36:31;147.80;;;9.60;;
2762;SDS011;1389;51.490;7.338;2023-06-24T11:38:57;147.90;;;9.50;;
2762;SDS011;1389;51.490;7.338;2023-06-24T11:41:24;148.40;;;9.40;;
2762;SDS011;1389;51.490;7.338;2023-06-24T11:43:53;148.25;;;9.18;;
2762;SDS011;1389;51.490;7.338;2023-06-24T11:46:29;148.20;;;9.40;;
2762;SDS011;1389;51.490;7.338;2023-06-24T11:49:04;147.40;;;9.50;;
2762;SDS011;1389;51.490;7.338;2023-06-24T11:51:32;146.40;;;9.30;;
2762;SDS011;1389;51.490;7.338;2023-06-24T11:54:02;146.57;;;9.38;;
2762;SDS011;1389;51.490;7.338;2023-06-24T11:56:35;146.20;;;9.20;;
2762;SDS011;1389;51.490;7.338;2023-06-24T11:59:05;147.00;;;9.30;;
2762;SDS011;1389;51.490;7.338;2023-06-24T12:01:33;146.10;;;8.80;;
2762;SDS011;1389;51.490;7.338;2023-06-24T12:04:12;148.30;;;9.77;;
2762;SDS011;1389;51.490;7.338;2023-06-24T12:06:42;151.60;;;10.68;;
2762;SDS011;1389;51.490;7.338;2023-06-24T12:09:09;194.63;;;27.20;;
2762;SDS011;1389;51.490;7.338;2023-06-24T12:11:41;195.90;;;28.48;;
2762;SDS011;1389;51.490;7.338;2023-06-24T12:14:08;195.20;;;26.95;;
2762;SDS011;1389;51.490;7.338;2023-06-24T12:16:34;195.85;;;27.30;;
2762;SDS011;1389;51.490;7.338;2023-06-24T12:19:01;196.80;;;27.95;;
2762;SDS011;1389;51.490;7.338;2023-06-24T12:21:28;197.10;;;27.35;;
2762;SDS011;1389;51.490;7.338;2023-06-24T12:23:54;199.23;;;29.83;;
2762;SDS011;1389;51.490;7.338;2023-06-24T12:26:21;198.73;;;29.45;;
2762;SDS011;1389;51.490;7.338;2023-06-24T12:28:47;198.73;;;29.40;;
2762;SDS011;1389;51.490;7.338;2023-06-24T12:31:13;199.30;;;29.92;;
2762;SDS011;1389;51.490;7.338;2023-06-24T12:33:40;199.30;;;30.10;;
2762;SDS011;1389;51.490;7.338;2023-06-24T12:36:07;199.82;;;29.00;;
2762;SDS011;1389;51.490;7.338;2023-06-24T12:38:33;206.80;;;33.57;;
2762;SDS011;1389;51.490;7.338;2023-06-24T12:41:01;245.95;;;69.93;;
2762;SDS011;1389;51.490;7.338;2023-06-24T12:43:27;243.93;;;40.47;;
2762;SDS011;1389;51.490;7.338;2023-06-24T12:45:54;242.20;;;42.20;;
2762;SDS011;1389;51.490;7.338;2023-06-24T12:48:21;239.17;;;37.63;;
2762;SDS011;1389;51.490;7.338;2023-06-24T12:50:47;235.05;;;39.13;;
2762;SDS011;1389;51.490;7.338;2023-06-24T12:53:18;222.27;;;31.45;;
2762;SDS011;1389;51.490;7.338;2023-06-24T12:55:44;228.70;;;38.40;;
2762;SDS011;1389;51.490;7.338;2023-06-24T12:58:12;223.20;;;31.05;;
2762;SDS011;1389;51.490;7.338;2023-06-24T13:00:39;219.82;;;27.52;;
2762;SDS011;1389;51.490;7.338;2023-06-24T13:03:05;217.90;;;28.25;;
2762;SDS011;1389;51.490;7.338;2023-06-24T13:05:31;255.07;;;48.67;;
2762;SDS011;1389;51.490;7.338;2023-06-24T13:07:58;237.33;;;41.53;;
2762;SDS011;1389;51.490;7.338;2023-06-24T13:10:24;258.27;;;56.13;;
2762;SDS011;1389;51.490;7.338;2023-06-24T13:12:50;237.27;;;38.20;;
2762;SDS011;1389;51.490;7.338;2023-06-24T13:15:17;285.07;;;68.80;;
2762;SDS011;1389;51.490;7.338;2023-06-24T13:17:44;276.88;;;67.45;;
2762;SDS011;1389;51.490;7.338;2023-06-24T13:20:15;251.68;;;53.55;;
2762;SDS011;1389;51.490;7.338;2023-06-24T13:22:41;318.38;;;131.00;;
2762;SDS011;1389;51.490;7.338;2023-06-24T13:25:07;264.85;;;82.53;;
2762;SDS011;1389;51.490;7.338;2023-06-24T13:27:34;212.45;;;28.90;;
2762;SDS011;1389;51.490;7.338;2023-06-24T13:30:00;205.60;;;21.75;;
2762;SDS011;1389;51.490;7.338;2023-06-24T13:32:29;204.07;;;21.13;;
2762;SDS011;1389;51.490;7.338;2023-06-24T13:34:55;201.43;;;18.58;;
2762;SDS011;1389;51.490;7.338;2023-06-24T13:37:22;201.40;;;18.73;;
2762;SDS011;1389;51.490;7.338;2023-06-24T13:39:48;187.68;;;15.75;;
2762;SDS011;1389;51.490;7.338;2023-06-24T13:42:14;190.93;;;16.80;;
2762;SDS011;1389;51.490;7.338;2023-06-24T13:44:41;190.80;;;16.25;;
2762;SDS011;1389;51.490;7.338;2023-06-24T13:47:07;191.80;;;16.60;;
2762;SDS011;1389;51.490;7.338;2023-06-24T13:49:34;191.30;;;16.45;;
2762;SDS011;1389;51.490;7.338;2023-06-24T13:52:01;189.40;;;16.00;;
2762;SDS011;1389;51.490;7.338;2023-06-24T13:54:27;189.60;;;16.30;;
2762;SDS011;1389;51.490;7.338;2023-06-24T13:57:01;190.02;;;16.63;;
2762;SDS011;1389;51.490;7.338;2023-06-24T13:59:41;187.95;;;16.50;;
2762;SDS011;1389;51.490;7.338;2023-06-24T14:02:20;208.50;;;22.63;;
2762;SDS011;1389;51.490;7.338;2023-06-24T14:04:47;316.15;;;138.82;;
2762;SDS011;1389;51.490;7.338;2023-06-24T14:07:13;214.52;;;24.80;;
2762;SDS011;1389;51.490;7.338;2023-06-24T14:09:40;270.23;;;75.47;;
2762;SDS011;1389;51.490;7.338;2023-06-24T14:12:06;238.13;;;35.40;;
2762;SDS011;1389;51.490;7.338;2023-06-24T14:14:34;258.43;;;59.83;;
2762;SDS011;1389;51.490;7.338;2023-06-24T14:17:01;292.42;;;85.57;;
2762;SDS011;1389;51.490;7.338;2023-06-24T14:19:28;279.23;;;68.40;;
2762;SDS011;1389;51.490;7.338;2023-06-24T14:21:54;288.60;;;79.68;;
2762;SDS011;1389;51.490;7.338;2023-06-24T14:24:21;284.35;;;81.85;;
2762;SDS011;1389;51.490;7.338;2023-06-24T14:26:47;265.00;;;55.10;;
2762;SDS011;1389;51.490;7.338;2023-06-24T14:29:14;281.02;;;75.85;;
2762;SDS011;1389;51.490;7.338;2023-06-24T14:31:41;298.55;;;88.05;;
2762;SDS011;1389;51.490;7.338;2023-06-24T14:34:07;264.85;;;55.00;;
2762;SDS011;1389;51.490;7.338;2023-06-24T14:36:34;278.52;;;74.68;;
2762;SDS011;1389;51.490;7.338;2023-06-24T14:39:00;264.65;;;51.40;;
2762;SDS011;1389;51.490;7.338;2023-06-24T14:41:26;261.23;;;49.88;;
2762;SDS011;1389;51.490;7.338;2023-06-24T14:43:53;262.03;;;48.50;;
2762;SDS011;1389;51.490;7.338;2023-06-24T14:46:19;294.45;;;95.82;;
2762;SDS011;1389;51.490;7.338;2023-06-24T14:48:45;281.48;;;65.80;;
2762;SDS011;1389;51.490;7.338;2023-06-24T14:51:12;260.73;;;48.83;;
2762;SDS011;1389;51.490;7.338;2023-06-24T14:53:38;257.42;;;44.53;;
2762;SDS011;1389;51.490;7.338;2023-06-24T14:56:05;261.40;;;49.95;;
2762;SDS011;1389;51.490;7.338;2023-06-24T14:58:32;250.43;;;40.55;;
2762;SDS011;1389;51.490;7.338;2023-06-24T15:00:58;248.50;;;39.20;;
2762;SDS011;1389;51.490;7.338;2023-06-24T15:03:24;250.77;;;40.95;;
2762;SDS011;1389;51.490;7.338;2023-06-24T15:05:51;249.38;;;39.97;;
2762;SDS011;1389;51.490;7.338;2023-06-24T15:08:17;251.70;;;43.50;;